sensor_id;sensor_type;location;lat;lon;timestamp;temperature;humidity
68251;DHT22;55066;51.560;4.642;2022-07-29T00:00:19;16.97;71.08
68251;DHT22;55066;51.560;4.642;2022-07-29T00:02:44;16.93;67.84
68251;DHT22;55066;51.560;4.642;2022-07-29T00:05:10;16.83;72.57
68251;DHT22;55066;51.560;4.642;2022-07-29T00:07:38;16.88;68.50
68251;DHT22;55066;51.560;4.642;2022-07-29T00:10:04;17.06;66.67
68251;DHT22;55066;51.560;4.642;2022-07-29T00:12:29;17.06;69.58
68251;DHT22;55066;51.560;4.642;2022-07-29T00:14:55;16.95;69.81
68251;DHT22;55066;51.560;4.642;2022-07-29T00:17:22;17.10;67.59
68251;DHT22;55066;51.560;4.642;2022-07-29T00:19:48;16.97;70.68
68251;DHT22;55066;51.560;4.642;2022-07-29T00:22:13;17.06;66.01
68251;DHT22;55066;51.560;4.642;2022-07-29T00:24:39;17.35;66.86
68251;DHT22;55066;51.560;4.642;2022-07-29T00:27:04;17.22;69.31
68251;DHT22;55066;51.560;4.642;2022-07-29T00:29:30;16.90;71.62
68251;DHT22;55066;51.560;4.642;2022-07-29T00:31:55;16.79;71.19
68251;DHT22;55066;51.560;4.642;2022-07-29T00:34:20;16.85;70.75
68251;DHT22;55066;51.560;4.642;2022-07-29T00:37:04;16.95;68.55
68251;DHT22;55066;51.560;4.642;2022-07-29T00:39:30;16.97;69.34
68251;DHT22;55066;51.560;4.642;2022-07-29T00:41:55;16.87;71.16
68251;DHT22;55066;51.560;4.642;2022-07-29T00:44:20;16.66;71.90
68251;DHT22;55066;51.560;4.642;2022-07-29T00:46:46;16.66;72.42
68251;DHT22;55066;51.560;4.642;2022-07-29T00:49:12;16.74;70.94
68251;DHT22;55066;51.560;4.642;2022-07-29T00:51:38;16.85;65.89
68251;DHT22;55066;51.560;4.642;2022-07-29T00:54:05;17.01;67.98
68251;DHT22;55066;51.560;4.642;2022-07-29T00:56:31;17.42;67.11
68251;DHT22;55066;51.560;4.642;2022-07-29T00:58:58;17.43;68.94
68251;DHT22;55066;51.560;4.642;2022-07-29T01:01:23;17.40;66.45
68251;DHT22;55066;51.560;4.642;2022-07-29T01:03:49;17.39;66.45
68251;DHT22;55066;51.560;4.642;2022-07-29T01:06:16;17.50;64.41
68251;DHT22;55066;51.560;4.642;2022-07-29T01:08:42;17.06;67.06
68251;DHT22;55066;51.560;4.642;2022-07-29T01:11:08;16.84;70.04
68251;DHT22;55066;51.560;4.642;2022-07-29T01:13:34;16.64;72.83
68251;DHT22;55066;51.560;4.642;2022-07-29T01:16:06;16.45;69.13
68251;DHT22;55066;51.560;4.642;2022-07-29T01:18:35;16.62;65.93
68251;DHT22;55066;51.560;4.642;2022-07-29T01:26:48;16.56;73.69
68251;DHT22;55066;51.560;4.642;2022-07-29T01:29:23;16.46;73.79
68251;DHT22;55066;51.560;4.642;2022-07-29T01:32:04;16.17;73.83
68251;DHT22;55066;51.560;4.642;2022-07-29T01:34:41;16.28;70.24
68251;DHT22;55066;51.560;4.642;2022-07-29T01:37:26;16.29;74.63
68251;DHT22;55066;51.560;4.642;2022-07-29T01:39:56;16.12;74.98
68251;DHT22;55066;51.560;4.642;2022-07-29T01:42:36;16.19;74.68
68251;DHT22;55066;51.560;4.642;2022-07-29T01:45:12;16.29;73.65
68251;DHT22;55066;51.560;4.642;2022-07-29T01:47:43;16.48;71.09
68251;DHT22;55066;51.560;4.642;2022-07-29T01:50:11;16.43;71.36
68251;DHT22;55066;51.560;4.642;2022-07-29T01:52:42;16.28;70.94
68251;DHT22;55066;51.560;4.642;2022-07-29T01:55:14;16.24;73.11
68251;DHT22;55066;51.560;4.642;2022-07-29T01:57:42;16.21;70.58
68251;DHT22;55066;51.560;4.642;2022-07-29T02:00:10;16.09;75.70
68251;DHT22;55066;51.560;4.642;2022-07-29T02:02:42;16.19;73.22
68251;DHT22;55066;51.560;4.642;2022-07-29T02:05:11;16.24;72.68
68251;DHT22;55066;51.560;4.642;2022-07-29T02:07:38;16.62;66.60
68251;DHT22;55066;51.560;4.642;2022-07-29T02:10:06;16.28;75.03
68251;DHT22;55066;51.560;4.642;2022-07-29T02:12:33;16.12;71.93
68251;DHT22;55066;51.560;4.642;2022-07-29T02:15:03;16.02;75.52
68251;DHT22;55066;51.560;4.642;2022-07-29T02:17:37;16.28;73.41
68251;DHT22;55066;51.560;4.642;2022-07-29T02:20:04;16.26;74.30
68251;DHT22;55066;51.560;4.642;2022-07-29T02:22:31;16.28;72.01
68251;DHT22;55066;51.560;4.642;2022-07-29T02:24:59;16.29;73.94
68251;DHT22;55066;51.560;4.642;2022-07-29T02:27:26;16.15;73.72
68251;DHT22;55066;51.560;4.642;2022-07-29T02:29:54;16.14;72.10
68251;DHT22;55066;51.560;4.642;2022-07-29T02:32:21;16.26;73.65
68251;DHT22;55066;51.560;4.642;2022-07-29T02:34:48;16.24;71.56
68251;DHT22;55066;51.560;4.642;2022-07-29T02:37:15;16.19;74.46
68251;DHT22;55066;51.560;4.642;2022-07-29T02:39:43;16.28;71.17
68251;DHT22;55066;51.560;4.642;2022-07-29T02:42:12;16.08;73.37
68251;DHT22;55066;51.560;4.642;2022-07-29T02:44:38;16.12;74.42
68251;DHT22;55066;51.560;4.642;2022-07-29T02:47:27;15.97;75.76
68251;DHT22;55066;51.560;4.642;2022-07-29T02:50:30;15.98;75.16
68251;DHT22;55066;51.560;4.642;2022-07-29T02:53:16;15.90;70.90
68251;DHT22;55066;51.560;4.642;2022-07-29T02:55:56;16.05;73.67
68251;DHT22;55066;51.560;4.642;2022-07-29T02:58:30;15.98;75.63
68251;DHT22;55066;51.560;4.642;2022-07-29T03:01:01;16.05;73.51
68251;DHT22;55066;51.560;4.642;2022-07-29T03:03:30;15.76;76.85
68251;DHT22;55066;51.560;4.642;2022-07-29T03:05:58;15.67;73.82
68251;DHT22;55066;51.560;4.642;2022-07-29T03:08:26;15.76;76.35
68251;DHT22;55066;51.560;4.642;2022-07-29T03:10:52;15.63;75.27
68251;DHT22;55066;51.560;4.642;2022-07-29T03:13:19;15.61;76.31
68251;DHT22;55066;51.560;4.642;2022-07-29T03:15:45;15.56;73.86
68251;DHT22;55066;51.560;4.642;2022-07-29T03:18:11;15.53;77.23
68251;DHT22;55066;51.560;4.642;2022-07-29T03:20:37;15.67;70.95
68251;DHT22;55066;51.560;4.642;2022-07-29T03:23:03;15.78;73.43
68251;DHT22;55066;51.560;4.642;2022-07-29T03:25:30;15.80;76.43
68251;DHT22;55066;51.560;4.642;2022-07-29T03:27:56;15.76;73.19
68251;DHT22;55066;51.560;4.642;2022-07-29T03:30:22;15.64;72.92
68251;DHT22;55066;51.560;4.642;2022-07-29T03:32:48;15.60;77.03
68251;DHT22;55066;51.560;4.642;2022-07-29T03:35:13;15.71;74.44
68251;DHT22;55066;51.560;4.642;2022-07-29T03:37:39;15.52;77.63
68251;DHT22;55066;51.560;4.642;2022-07-29T03:40:07;15.54;77.59
68251;DHT22;55066;51.560;4.642;2022-07-29T03:42:35;15.57;77.04
68251;DHT22;55066;51.560;4.642;2022-07-29T03:45:05;15.70;76.90
68251;DHT22;55066;51.560;4.642;2022-07-29T03:47:31;15.60;75.22
68251;DHT22;55066;51.560;4.642;2022-07-29T03:50:05;15.59;71.29
68251;DHT22;55066;51.560;4.642;2022-07-29T03:52:31;15.52;75.46
68251;DHT22;55066;51.560;4.642;2022-07-29T03:54:57;15.46;76.06
68251;DHT22;55066;51.560;4.642;2022-07-29T03:57:24;15.47;74.52
68251;DHT22;55066;51.560;4.642;2022-07-29T03:59:51;15.36;76.04
68251;DHT22;55066;51.560;4.642;2022-07-29T04:02:17;15.43;73.70
68251;DHT22;55066;51.560;4.642;2022-07-29T04:04:42;15.59;68.86
68251;DHT22;55066;51.560;4.642;2022-07-29T04:07:12;15.35;77.78
68251;DHT22;55066;51.560;4.642;2022-07-29T04:09:37;15.25;74.38
68251;DHT22;55066;51.560;4.642;2022-07-29T04:12:03;15.23;77.72
68251;DHT22;55066;51.560;4.642;2022-07-29T04:14:30;15.22;77.38
68251;DHT22;55066;51.560;4.642;2022-07-29T04:16:55;15.39;76.02
68251;DHT22;55066;51.560;4.642;2022-07-29T04:19:21;15.23;78.02
68251;DHT22;55066;51.560;4.642;2022-07-29T04:21:46;15.19;77.70
68251;DHT22;55066;51.560;4.642;2022-07-29T04:24:12;15.28;77.46
68251;DHT22;55066;51.560;4.642;2022-07-29T04:26:37;15.42;77.61
68251;DHT22;55066;51.560;4.642;2022-07-29T04:29:03;15.42;74.95
68251;DHT22;55066;51.560;4.642;2022-07-29T04:31:28;15.47;76.90
68251;DHT22;55066;51.560;4.642;2022-07-29T04:33:54;15.36;76.61
68251;DHT22;55066;51.560;4.642;2022-07-29T04:36:19;15.26;78.98
68251;DHT22;55066;51.560;4.642;2022-07-29T04:38:44;15.25;78.72
68251;DHT22;55066;51.560;4.642;2022-07-29T04:41:10;15.40;69.29
68251;DHT22;55066;51.560;4.642;2022-07-29T04:43:35;15.49;77.87
68251;DHT22;55066;51.560;4.642;2022-07-29T04:46:02;15.33;78.84
68251;DHT22;55066;51.560;4.642;2022-07-29T04:48:28;15.47;76.09
68251;DHT22;55066;51.560;4.642;2022-07-29T04:50:53;15.59;72.92
68251;DHT22;55066;51.560;4.642;2022-07-29T04:53:19;15.28;78.75
68251;DHT22;55066;51.560;4.642;2022-07-29T04:55:44;15.18;76.01
68251;DHT22;55066;51.560;4.642;2022-07-29T04:58:10;15.38;69.14
68251;DHT22;55066;51.560;4.642;2022-07-29T05:00:36;15.40;78.61
68251;DHT22;55066;51.560;4.642;2022-07-29T05:03:02;15.47;77.38
68251;DHT22;55066;51.560;4.642;2022-07-29T05:05:27;15.59;76.97
68251;DHT22;55066;51.560;4.642;2022-07-29T05:07:52;15.74;75.97
68251;DHT22;55066;51.560;4.642;2022-07-29T05:10:18;15.66;77.98
68251;DHT22;55066;51.560;4.642;2022-07-29T05:12:43;15.69;72.00
68251;DHT22;55066;51.560;4.642;2022-07-29T05:15:09;15.56;77.25
68251;DHT22;55066;51.560;4.642;2022-07-29T05:17:35;15.52;76.78
68251;DHT22;55066;51.560;4.642;2022-07-29T05:20:00;15.59;77.16
68251;DHT22;55066;51.560;4.642;2022-07-29T05:22:25;15.52;78.04
68251;DHT22;55066;51.560;4.642;2022-07-29T05:24:51;15.66;76.22
68251;DHT22;55066;51.560;4.642;2022-07-29T05:27:16;15.74;69.59
68251;DHT22;55066;51.560;4.642;2022-07-29T05:29:41;15.81;75.48
68251;DHT22;55066;51.560;4.642;2022-07-29T05:32:07;15.93;71.54
68251;DHT22;55066;51.560;4.642;2022-07-29T05:34:32;16.02;72.66
68251;DHT22;55066;51.560;4.642;2022-07-29T05:36:58;16.00;71.33
68251;DHT22;55066;51.560;4.642;2022-07-29T05:39:23;16.28;67.77
68251;DHT22;55066;51.560;4.642;2022-07-29T05:41:49;16.21;70.93
68251;DHT22;55066;51.560;4.642;2022-07-29T05:44:14;16.30;66.85
68251;DHT22;55066;51.560;4.642;2022-07-29T05:46:40;16.24;69.49
68251;DHT22;55066;51.560;4.642;2022-07-29T05:49:05;16.05;73.46
68251;DHT22;55066;51.560;4.642;2022-07-29T05:51:34;15.66;77.59
68251;DHT22;55066;51.560;4.642;2022-07-29T05:54:00;15.60;74.55
68251;DHT22;55066;51.560;4.642;2022-07-29T05:56:26;15.93;75.37
68251;DHT22;55066;51.560;4.642;2022-07-29T05:58:51;15.91;77.29
68251;DHT22;55066;51.560;4.642;2022-07-29T06:01:17;16.04;72.10
68251;DHT22;55066;51.560;4.642;2022-07-29T06:03:43;15.98;75.38
68251;DHT22;55066;51.560;4.642;2022-07-29T06:06:09;15.77;78.05
68251;DHT22;55066;51.560;4.642;2022-07-29T06:08:35;16.01;75.61
68251;DHT22;55066;51.560;4.642;2022-07-29T06:11:02;16.38;73.03
68251;DHT22;55066;51.560;4.642;2022-07-29T06:13:28;16.46;75.67
68251;DHT22;55066;51.560;4.642;2022-07-29T06:15:54;16.24;76.68
68251;DHT22;55066;51.560;4.642;2022-07-29T06:18:19;16.30;73.11
68251;DHT22;55066;51.560;4.642;2022-07-29T06:20:46;16.49;74.66
68251;DHT22;55066;51.560;4.642;2022-07-29T06:23:11;16.66;73.17
68251;DHT22;55066;51.560;4.642;2022-07-29T06:25:39;17.10;68.94
68251;DHT22;55066;51.560;4.642;2022-07-29T06:28:05;17.29;67.33
68251;DHT22;55066;51.560;4.642;2022-07-29T06:30:30;17.01;72.84
68251;DHT22;55066;51.560;4.642;2022-07-29T06:32:56;16.73;73.24
68251;DHT22;55066;51.560;4.642;2022-07-29T06:35:21;16.95;69.99
68251;DHT22;55066;51.560;4.642;2022-07-29T06:37:47;16.94;72.88
68251;DHT22;55066;51.560;4.642;2022-07-29T06:40:12;16.91;74.01
68251;DHT22;55066;51.560;4.642;2022-07-29T06:42:59;16.70;74.87
68251;DHT22;55066;51.560;4.642;2022-07-29T06:45:24;17.15;71.56
68251;DHT22;55066;51.560;4.642;2022-07-29T06:47:50;17.38;73.36
68251;DHT22;55066;51.560;4.642;2022-07-29T06:50:16;17.62;68.71
68251;DHT22;55066;51.560;4.642;2022-07-29T06:52:41;17.55;70.97
68251;DHT22;55066;51.560;4.642;2022-07-29T06:55:07;17.38;73.04
68251;DHT22;55066;51.560;4.642;2022-07-29T06:57:33;17.53;72.87
68251;DHT22;55066;51.560;4.642;2022-07-29T06:59:58;17.98;70.69
68251;DHT22;55066;51.560;4.642;2022-07-29T07:02:24;18.13;71.28
68251;DHT22;55066;51.560;4.642;2022-07-29T07:04:49;18.35;69.84
68251;DHT22;55066;51.560;4.642;2022-07-29T07:07:15;18.28;67.87
68251;DHT22;55066;51.560;4.642;2022-07-29T07:09:40;18.32;70.53
68251;DHT22;55066;51.560;4.642;2022-07-29T07:12:06;18.60;69.36
68251;DHT22;55066;51.560;4.642;2022-07-29T07:14:31;18.93;65.97
68251;DHT22;55066;51.560;4.642;2022-07-29T07:16:57;18.92;65.79
68251;DHT22;55066;51.560;4.642;2022-07-29T07:19:22;18.75;68.10
68251;DHT22;55066;51.560;4.642;2022-07-29T07:21:48;18.44;69.59
68251;DHT22;55066;51.560;4.642;2022-07-29T07:24:13;18.53;68.43
68251;DHT22;55066;51.560;4.642;2022-07-29T07:26:38;18.93;69.54
68251;DHT22;55066;51.560;4.642;2022-07-29T07:29:05;18.86;69.10
68251;DHT22;55066;51.560;4.642;2022-07-29T07:31:30;18.66;69.14
68251;DHT22;55066;51.560;4.642;2022-07-29T07:33:56;19.04;67.12
68251;DHT22;55066;51.560;4.642;2022-07-29T07:36:22;19.71;63.54
68251;DHT22;55066;51.560;4.642;2022-07-29T07:38:48;19.25;66.30
68251;DHT22;55066;51.560;4.642;2022-07-29T07:41:14;19.11;68.02
68251;DHT22;55066;51.560;4.642;2022-07-29T07:43:39;19.87;63.42
68251;DHT22;55066;51.560;4.642;2022-07-29T07:46:05;19.78;66.52
68251;DHT22;55066;51.560;4.642;2022-07-29T07:48:30;20.31;62.83
68251;DHT22;55066;51.560;4.642;2022-07-29T07:50:55;19.87;66.20
68251;DHT22;55066;51.560;4.642;2022-07-29T07:53:21;20.34;64.58
68251;DHT22;55066;51.560;4.642;2022-07-29T07:55:47;21.14;62.48
68251;DHT22;55066;51.560;4.642;2022-07-29T07:58:12;20.67;64.53
68251;DHT22;55066;51.560;4.642;2022-07-29T08:00:37;20.83;62.55
68251;DHT22;55066;51.560;4.642;2022-07-29T08:03:03;20.72;64.20
68251;DHT22;55066;51.560;4.642;2022-07-29T08:05:29;20.85;64.12
68251;DHT22;55066;51.560;4.642;2022-07-29T08:07:54;20.88;64.62
68251;DHT22;55066;51.560;4.642;2022-07-29T08:10:20;21.34;62.31
68251;DHT22;55066;51.560;4.642;2022-07-29T08:13:08;21.67;62.23
68251;DHT22;55066;51.560;4.642;2022-07-29T08:15:34;21.43;63.30
68251;DHT22;55066;51.560;4.642;2022-07-29T08:18:00;22.17;61.48
68251;DHT22;55066;51.560;4.642;2022-07-29T08:20:26;22.46;61.16
68251;DHT22;55066;51.560;4.642;2022-07-29T08:22:51;22.95;59.79
68251;DHT22;55066;51.560;4.642;2022-07-29T08:25:18;22.51;60.74
68251;DHT22;55066;51.560;4.642;2022-07-29T08:27:48;22.88;60.25
68251;DHT22;55066;51.560;4.642;2022-07-29T08:30:14;23.43;59.26
68251;DHT22;55066;51.560;4.642;2022-07-29T08:32:39;22.13;62.41
68251;DHT22;55066;51.560;4.642;2022-07-29T08:35:05;22.92;60.72
68251;DHT22;55066;51.560;4.642;2022-07-29T08:37:30;23.57;59.52
68251;DHT22;55066;51.560;4.642;2022-07-29T08:39:56;23.71;58.94
68251;DHT22;55066;51.560;4.642;2022-07-29T08:42:21;23.81;58.73
68251;DHT22;55066;51.560;4.642;2022-07-29T08:44:47;22.72;61.68
68251;DHT22;55066;51.560;4.642;2022-07-29T08:47:16;23.12;61.08
68251;DHT22;55066;51.560;4.642;2022-07-29T08:49:42;23.30;58.89
68251;DHT22;55066;51.560;4.642;2022-07-29T08:52:11;23.20;60.84
68251;DHT22;55066;51.560;4.642;2022-07-29T08:54:38;23.11;60.96
68251;DHT22;55066;51.560;4.642;2022-07-29T08:57:04;23.75;60.04
68251;DHT22;55066;51.560;4.642;2022-07-29T08:59:34;23.98;59.18
68251;DHT22;55066;51.560;4.642;2022-07-29T09:02:00;23.36;58.86
68251;DHT22;55066;51.560;4.642;2022-07-29T09:04:30;24.76;57.31
68251;DHT22;55066;51.560;4.642;2022-07-29T09:07:01;25.58;56.15
68251;DHT22;55066;51.560;4.642;2022-07-29T09:09:30;24.98;56.75
68251;DHT22;55066;51.560;4.642;2022-07-29T09:11:55;25.48;55.52
68251;DHT22;55066;51.560;4.642;2022-07-29T09:14:21;25.86;55.40
68251;DHT22;55066;51.560;4.642;2022-07-29T09:16:54;25.14;57.08
68251;DHT22;55066;51.560;4.642;2022-07-29T09:19:25;25.93;54.65
68251;DHT22;55066;51.560;4.642;2022-07-29T09:21:51;26.10;54.98
68251;DHT22;55066;51.560;4.642;2022-07-29T09:24:23;26.00;55.91
68251;DHT22;55066;51.560;4.642;2022-07-29T09:26:49;26.24;55.29
68251;DHT22;55066;51.560;4.642;2022-07-29T09:29:17;25.90;56.59
68251;DHT22;55066;51.560;4.642;2022-07-29T09:31:45;27.23;53.75
68251;DHT22;55066;51.560;4.642;2022-07-29T09:34:16;27.33;53.59
68251;DHT22;55066;51.560;4.642;2022-07-29T09:36:46;26.95;54.42
68251;DHT22;55066;51.560;4.642;2022-07-29T09:39:13;26.75;55.30
68251;DHT22;55066;51.560;4.642;2022-07-29T09:41:50;26.71;54.44
68251;DHT22;55066;51.560;4.642;2022-07-29T09:44:18;27.82;53.12
68251;DHT22;55066;51.560;4.642;2022-07-29T09:47:00;25.86;56.09
68251;DHT22;55066;51.560;4.642;2022-07-29T09:49:49;27.34;54.13
68251;DHT22;55066;51.560;4.642;2022-07-29T09:52:15;27.51;54.11
68251;DHT22;55066;51.560;4.642;2022-07-29T09:54:41;27.31;53.77
68251;DHT22;55066;51.560;4.642;2022-07-29T09:57:25;26.97;50.37
68251;DHT22;55066;51.560;4.642;2022-07-29T10:00:07;27.55;53.01
68251;DHT22;55066;51.560;4.642;2022-07-29T10:02:41;27.07;55.62
68251;DHT22;55066;51.560;4.642;2022-07-29T10:05:18;27.88;53.77
68251;DHT22;55066;51.560;4.642;2022-07-29T10:07:55;26.65;52.41
68251;DHT22;55066;51.560;4.642;2022-07-29T10:10:21;26.68;53.70
68251;DHT22;55066;51.560;4.642;2022-07-29T10:15:21;28.33;52.60
68251;DHT22;55066;51.560;4.642;2022-07-29T10:17:47;28.40;49.81
68251;DHT22;55066;51.560;4.642;2022-07-29T10:20:13;27.62;50.65
68251;DHT22;55066;51.560;4.642;2022-07-29T10:22:40;29.12;51.48
68251;DHT22;55066;51.560;4.642;2022-07-29T10:25:06;28.33;49.16
68251;DHT22;55066;51.560;4.642;2022-07-29T10:27:32;28.37;53.26
68251;DHT22;55066;51.560;4.642;2022-07-29T10:30:01;28.50;52.85
68251;DHT22;55066;51.560;4.642;2022-07-29T10:32:40;28.12;48.12
68251;DHT22;55066;51.560;4.642;2022-07-29T10:35:22;29.50;51.27
68251;DHT22;55066;51.560;4.642;2022-07-29T10:38:07;29.63;51.93
68251;DHT22;55066;51.560;4.642;2022-07-29T10:43:45;27.52;55.45
68251;DHT22;55066;51.560;4.642;2022-07-29T10:46:11;29.00;46.22
68251;DHT22;55066;51.560;4.642;2022-07-29T10:49:16;29.51;51.64
68251;DHT22;55066;51.560;4.642;2022-07-29T10:52:08;28.33;45.59
68251;DHT22;55066;51.560;4.642;2022-07-29T10:57:28;28.61;54.45
68251;DHT22;55066;51.560;4.642;2022-07-29T11:04:59;29.09;53.30
68251;DHT22;55066;51.560;4.642;2022-07-29T11:07:26;29.02;53.55
68251;DHT22;55066;51.560;4.642;2022-07-29T11:15:11;29.74;50.92
68251;DHT22;55066;51.560;4.642;2022-07-29T11:20:35;29.89;46.73
68251;DHT22;55066;51.560;4.642;2022-07-29T11:23:03;30.75;49.19
68251;DHT22;55066;51.560;4.642;2022-07-29T11:25:42;31.72;47.75
68251;DHT22;55066;51.560;4.642;2022-07-29T11:28:17;32.14;45.63
68251;DHT22;55066;51.560;4.642;2022-07-29T11:33:33;28.61;46.61
68251;DHT22;55066;51.560;4.642;2022-07-29T11:36:13;30.73;49.92
68251;DHT22;55066;51.560;4.642;2022-07-29T11:38:38;32.07;48.45
68251;DHT22;55066;51.560;4.642;2022-07-29T11:41:24;32.22;47.82
68251;DHT22;55066;51.560;4.642;2022-07-29T11:43:54;32.27;45.22
68251;DHT22;55066;51.560;4.642;2022-07-29T11:46:49;32.76;45.59
68251;DHT22;55066;51.560;4.642;2022-07-29T11:49:26;31.84;45.21
68251;DHT22;55066;51.560;4.642;2022-07-29T11:51:53;30.05;41.60
68251;DHT22;55066;51.560;4.642;2022-07-29T11:54:30;31.78;45.67
68251;DHT22;55066;51.560;4.642;2022-07-29T11:56:57;31.59;45.01
68251;DHT22;55066;51.560;4.642;2022-07-29T11:59:24;32.14;45.24
68251;DHT22;55066;51.560;4.642;2022-07-29T12:01:56;32.46;45.69
68251;DHT22;55066;51.560;4.642;2022-07-29T12:04:23;30.77;41.53
68251;DHT22;55066;51.560;4.642;2022-07-29T12:06:55;28.95;43.25
68251;DHT22;55066;51.560;4.642;2022-07-29T12:09:22;29.17;55.90
68251;DHT22;55066;51.560;4.642;2022-07-29T12:11:49;30.35;54.69
68251;DHT22;55066;51.560;4.642;2022-07-29T12:14:32;30.70;53.45
68251;DHT22;55066;51.560;4.642;2022-07-29T12:16:59;31.74;44.45
68251;DHT22;55066;51.560;4.642;2022-07-29T12:19:26;32.41;48.03
68251;DHT22;55066;51.560;4.642;2022-07-29T12:21:54;32.89;41.11
68251;DHT22;55066;51.560;4.642;2022-07-29T12:24:20;30.83;41.63
68251;DHT22;55066;51.560;4.642;2022-07-29T12:26:56;31.69;45.64
68251;DHT22;55066;51.560;4.642;2022-07-29T12:29:22;32.63;48.62
68251;DHT22;55066;51.560;4.642;2022-07-29T12:31:54;32.51;49.74
68251;DHT22;55066;51.560;4.642;2022-07-29T12:34:22;32.15;43.20
68251;DHT22;55066;51.560;4.642;2022-07-29T12:36:49;31.65;40.26
68251;DHT22;55066;51.560;4.642;2022-07-29T12:39:16;31.46;51.32
68251;DHT22;55066;51.560;4.642;2022-07-29T12:41:42;31.19;44.30
68251;DHT22;55066;51.560;4.642;2022-07-29T12:44:08;29.82;41.69
68251;DHT22;55066;51.560;4.642;2022-07-29T12:46:33;31.49;44.75
68251;DHT22;55066;51.560;4.642;2022-07-29T12:48:59;32.62;47.66
68251;DHT22;55066;51.560;4.642;2022-07-29T12:51:29;32.96;46.16
68251;DHT22;55066;51.560;4.642;2022-07-29T12:56:31;32.53;39.99
68251;DHT22;55066;51.560;4.642;2022-07-29T12:58:56;32.80;45.50
68251;DHT22;55066;51.560;4.642;2022-07-29T13:01:22;33.11;39.81
68251;DHT22;55066;51.560;4.642;2022-07-29T13:03:49;33.23;45.36
68251;DHT22;55066;51.560;4.642;2022-07-29T13:09:06;33.89;43.80
68251;DHT22;55066;51.560;4.642;2022-07-29T13:11:36;34.13;43.33
68251;DHT22;55066;51.560;4.642;2022-07-29T13:14:02;33.40;44.59
68251;DHT22;55066;51.560;4.642;2022-07-29T13:16:28;32.60;41.52
68251;DHT22;55066;51.560;4.642;2022-07-29T13:19:31;32.05;46.80
68251;DHT22;55066;51.560;4.642;2022-07-29T13:21:57;33.28;41.91
68251;DHT22;55066;51.560;4.642;2022-07-29T13:24:22;32.65;44.17
68251;DHT22;55066;51.560;4.642;2022-07-29T13:26:47;32.65;46.73
68251;DHT22;55066;51.560;4.642;2022-07-29T13:29:13;33.52;40.57
68251;DHT22;55066;51.560;4.642;2022-07-29T13:31:38;33.99;45.57
68251;DHT22;55066;51.560;4.642;2022-07-29T13:34:04;32.80;45.52
68251;DHT22;55066;51.560;4.642;2022-07-29T13:36:29;32.55;46.03
68251;DHT22;55066;51.560;4.642;2022-07-29T13:38:54;31.56;48.54
68251;DHT22;55066;51.560;4.642;2022-07-29T13:41:20;32.76;47.94
68251;DHT22;55066;51.560;4.642;2022-07-29T13:43:46;34.30;44.14
68251;DHT22;55066;51.560;4.642;2022-07-29T13:46:12;35.26;42.71
68251;DHT22;55066;51.560;4.642;2022-07-29T13:48:37;36.49;41.67
68251;DHT22;55066;51.560;4.642;2022-07-29T13:51:02;35.78;37.29
68251;DHT22;55066;51.560;4.642;2022-07-29T13:53:28;34.26;44.13
68251;DHT22;55066;51.560;4.642;2022-07-29T13:55:54;35.92;41.57
68251;DHT22;55066;51.560;4.642;2022-07-29T13:58:20;35.65;41.13
68251;DHT22;55066;51.560;4.642;2022-07-29T14:00:45;34.53;41.02
68251;DHT22;55066;51.560;4.642;2022-07-29T14:03:11;35.71;38.27
68251;DHT22;55066;51.560;4.642;2022-07-29T14:05:37;35.35;34.53
68251;DHT22;55066;51.560;4.642;2022-07-29T14:08:03;35.29;39.11
68251;DHT22;55066;51.560;4.642;2022-07-29T14:10:28;34.92;41.76
68251;DHT22;55066;51.560;4.642;2022-07-29T14:12:55;34.27;36.56
68251;DHT22;55066;51.560;4.642;2022-07-29T14:15:21;34.96;42.66
68251;DHT22;55066;51.560;4.642;2022-07-29T14:17:48;35.69;42.14
68251;DHT22;55066;51.560;4.642;2022-07-29T14:20:13;33.68;41.20
68251;DHT22;55066;51.560;4.642;2022-07-29T14:22:40;34.61;43.70
68251;DHT22;55066;51.560;4.642;2022-07-29T14:25:07;35.05;43.23
68251;DHT22;55066;51.560;4.642;2022-07-29T14:27:33;35.45;39.04
68251;DHT22;55066;51.560;4.642;2022-07-29T14:29:58;34.92;40.86
68251;DHT22;55066;51.560;4.642;2022-07-29T14:32:24;34.94;41.79
68251;DHT22;55066;51.560;4.642;2022-07-29T14:34:49;34.19;42.55
68251;DHT22;55066;51.560;4.642;2022-07-29T14:37:14;35.03;40.61
68251;DHT22;55066;51.560;4.642;2022-07-29T14:39:40;34.89;40.39
68251;DHT22;55066;51.560;4.642;2022-07-29T14:42:07;34.12;43.81
68251;DHT22;55066;51.560;4.642;2022-07-29T14:44:33;34.37;38.66
68251;DHT22;55066;51.560;4.642;2022-07-29T14:46:59;34.12;39.49
68251;DHT22;55066;51.560;4.642;2022-07-29T14:49:25;34.39;37.31
68251;DHT22;55066;51.560;4.642;2022-07-29T14:51:50;34.53;39.49
68251;DHT22;55066;51.560;4.642;2022-07-29T14:54:16;33.04;43.40
68251;DHT22;55066;51.560;4.642;2022-07-29T14:56:42;32.75;45.63
68251;DHT22;55066;51.560;4.642;2022-07-29T14:59:07;33.47;39.66
68251;DHT22;55066;51.560;4.642;2022-07-29T15:01:33;33.93;44.68
68251;DHT22;55066;51.560;4.642;2022-07-29T15:03:59;34.62;42.93
68251;DHT22;55066;51.560;4.642;2022-07-29T15:06:24;34.34;43.00
68251;DHT22;55066;51.560;4.642;2022-07-29T15:08:50;34.53;41.47
68251;DHT22;55066;51.560;4.642;2022-07-29T15:11:15;34.10;41.78
68251;DHT22;55066;51.560;4.642;2022-07-29T15:13:40;34.00;43.21
68251;DHT22;55066;51.560;4.642;2022-07-29T15:16:07;34.36;41.13
68251;DHT22;55066;51.560;4.642;2022-07-29T15:18:32;33.69;43.21
68251;DHT22;55066;51.560;4.642;2022-07-29T15:20:58;33.95;38.97
68251;DHT22;55066;51.560;4.642;2022-07-29T15:23:25;33.03;40.53
68251;DHT22;55066;51.560;4.642;2022-07-29T15:25:51;33.23;43.59
68251;DHT22;55066;51.560;4.642;2022-07-29T15:28:16;33.03;41.82
68251;DHT22;55066;51.560;4.642;2022-07-29T15:30:41;33.37;40.33
68251;DHT22;55066;51.560;4.642;2022-07-29T15:33:08;33.14;44.12
68251;DHT22;55066;51.560;4.642;2022-07-29T15:35:37;33.06;42.51
68251;DHT22;55066;51.560;4.642;2022-07-29T15:38:03;33.55;44.05
68251;DHT22;55066;51.560;4.642;2022-07-29T15:40:28;32.75;37.60
68251;DHT22;55066;51.560;4.642;2022-07-29T15:42:57;33.06;38.14
68251;DHT22;55066;51.560;4.642;2022-07-29T15:45:26;33.40;39.01
68251;DHT22;55066;51.560;4.642;2022-07-29T15:47:51;33.69;38.65
68251;DHT22;55066;51.560;4.642;2022-07-29T15:50:16;32.73;39.77
68251;DHT22;55066;51.560;4.642;2022-07-29T15:52:42;34.24;42.36
68251;DHT22;55066;51.560;4.642;2022-07-29T15:55:08;35.18;36.64
68251;DHT22;55066;51.560;4.642;2022-07-29T15:57:34;35.46;38.57
68251;DHT22;55066;51.560;4.642;2022-07-29T15:59:59;35.40;34.64
68251;DHT22;55066;51.560;4.642;2022-07-29T16:02:24;35.71;40.55
68251;DHT22;55066;51.560;4.642;2022-07-29T16:04:50;35.37;40.91
68251;DHT22;55066;51.560;4.642;2022-07-29T16:07:15;35.30;40.92
68251;DHT22;55066;51.560;4.642;2022-07-29T16:09:42;35.87;37.21